YWG weather

Winnipeg / James Armstrong Richardson International Airport
Winnipeg, Manitoba, Canada

Public forecast

Using degrees Celsius for public forecast. Weather courtesy of forecast.io.

METAR (pilot weather report)

Retrieved 2019/03/26 17:00 UTC (57 minutes ago):

CYWG 261700Z 18014KT 12SM OVC029 M01/M04 A3011 RMK SC8 SLP212

TAF (pilot weather forecast)

Retrieved 2019/03/26 12:45 UTC (5 hours ago):

TAF CYWG 261142Z 2612/2712 18012KT P6SM SCT008 OVC040 TEMPO 2612/2616 3SM -SN BR OVC008 PROB30 2614/2616 1SM -FZDZ BR OVC004 FM261600 19020KT P6SM OVC015 TEMPO 2616/2706 4SM BR OVC008 FM270600 18012KT P6SM OVC010 TEMPO 2706/2712 2SM BR OVC005 RMK NXT FCST BY 261800Z